createdAt,value
2017-11-09T00:02:24.324Z,20.45
2017-11-09T00:05:04.281Z,20.31
2017-11-09T00:07:36.869Z,20.28
2017-11-09T00:10:08.655Z,20.26
2017-11-09T00:12:43.177Z,20.21
2017-11-09T00:15:15.154Z,20.16
2017-11-09T00:17:48.145Z,20.08
2017-11-09T00:20:23.626Z,20.06
2017-11-09T00:22:56.364Z,20.01
2017-11-09T00:25:28.990Z,19.97
2017-11-09T00:28:01.613Z,19.90
2017-11-09T00:30:33.642Z,19.89
2017-11-09T00:33:04.986Z,19.85
2017-11-09T00:35:38.736Z,19.81
2017-11-09T00:38:11.254Z,19.78
2017-11-09T00:40:42.773Z,19.75
2017-11-09T00:43:14.376Z,19.74
2017-11-09T00:45:46.351Z,19.73
2017-11-09T00:48:18.191Z,19.72
2017-11-09T00:50:49.676Z,19.69
2017-11-09T00:53:20.965Z,19.70
2017-11-09T00:55:52.829Z,19.68
2017-11-09T00:58:27.851Z,19.61
2017-11-09T01:00:59.289Z,19.65
2017-11-09T01:03:30.723Z,19.65
2017-11-09T01:06:01.966Z,19.62
2017-11-09T01:08:34.643Z,19.60
2017-11-09T01:11:12.301Z,19.59
2017-11-09T01:13:44.344Z,19.56
2017-11-09T01:16:15.433Z,19.54
2017-11-09T01:18:48.491Z,19.49
2017-11-09T01:21:19.903Z,19.49
2017-11-09T01:23:52.018Z,19.46
2017-11-09T01:26:24.179Z,19.40
2017-11-09T01:28:56.114Z,19.38
2017-11-09T01:31:27.472Z,19.38
2017-11-09T01:33:58.894Z,19.34
2017-11-09T01:36:31.296Z,19.32
2017-11-09T01:39:03.076Z,19.29
2017-11-09T01:41:34.127Z,19.29
2017-11-09T01:44:06.722Z,19.23
2017-11-09T01:46:38.185Z,19.24
2017-11-09T01:49:09.407Z,19.19
2017-11-09T01:51:42.294Z,19.19
2017-11-09T01:54:14.054Z,19.13
2017-11-09T01:56:45.346Z,19.14
2017-11-09T01:59:16.884Z,19.12
2017-11-09T02:01:51.173Z,19.09
2017-11-09T02:04:22.512Z,19.07
2017-11-09T02:06:53.930Z,19.04
2017-11-09T02:09:25.285Z,19.02
2017-11-09T02:11:56.697Z,19.00
2017-11-09T02:14:28.388Z,18.99
2017-11-09T02:16:59.637Z,18.99
2017-11-09T02:19:31.288Z,18.98
2017-11-09T02:22:03.201Z,19.00
2017-11-09T02:24:35.113Z,19.01
2017-11-09T02:27:06.376Z,19.02
2017-11-09T02:29:38.973Z,19.00
2017-11-09T02:32:10.457Z,19.03
2017-11-09T02:34:41.545Z,19.02
2017-11-09T02:37:12.781Z,19.04
2017-11-09T02:39:43.842Z,19.04
2017-11-09T02:42:14.927Z,19.04
2017-11-09T02:44:47.150Z,19.03
2017-11-09T02:47:18.258Z,19.01
2017-11-09T02:49:49.379Z,19.02
2017-11-09T02:52:20.809Z,18.99
2017-11-09T02:54:52.310Z,18.98
2017-11-09T02:57:25.707Z,18.97
2017-11-09T02:59:59.510Z,18.95
2017-11-09T03:02:32.097Z,18.94
2017-11-09T03:05:05.212Z,18.90
2017-11-09T03:07:37.474Z,18.91
2017-11-09T03:10:36.050Z,18.88
2017-11-09T03:13:09.078Z,18.84
2017-11-09T03:15:41.247Z,18.85
2017-11-09T03:18:13.419Z,18.84
2017-11-09T03:20:45.237Z,18.82
2017-11-09T03:23:16.875Z,18.78
2017-11-09T03:25:48.211Z,18.80
2017-11-09T03:28:19.985Z,18.78
2017-11-09T03:30:51.271Z,18.75
2017-11-09T03:33:22.899Z,18.75
2017-11-09T03:35:54.196Z,18.73
2017-11-09T03:38:25.372Z,18.71
2017-11-09T03:40:56.886Z,18.71
2017-11-09T03:43:27.933Z,18.68
2017-11-09T03:45:59.505Z,18.70
2017-11-09T03:48:32.398Z,18.66
2017-11-09T03:51:03.713Z,18.70
2017-11-09T03:53:36.302Z,18.74
2017-11-09T03:56:07.759Z,18.80
2017-11-09T03:58:39.197Z,18.81
2017-11-09T04:01:10.189Z,18.81
2017-11-09T04:03:41.690Z,18.85
2017-11-09T04:06:12.882Z,18.85
2017-11-09T04:08:43.858Z,18.85
2017-11-09T04:11:16.090Z,18.83
2017-11-09T04:13:47.062Z,18.83
2017-11-09T04:16:18.985Z,18.73
2017-11-09T04:18:50.361Z,18.81
2017-11-09T04:21:21.904Z,18.78
2017-11-09T04:23:53.355Z,18.76
2017-11-09T04:26:24.365Z,18.73
2017-11-09T04:28:55.901Z,18.68
2017-11-09T04:31:26.879Z,18.69
2017-11-09T04:33:58.046Z,18.67
2017-11-09T04:36:29.195Z,18.65
2017-11-09T04:39:00.513Z,18.62
2017-11-09T04:41:32.072Z,18.61
2017-11-09T04:44:03.803Z,18.61
2017-11-09T04:46:34.828Z,18.57
2017-11-09T04:49:05.846Z,18.58
2017-11-09T04:51:37.206Z,18.55
2017-11-09T04:54:11.587Z,18.54
2017-11-09T04:56:43.085Z,18.54
2017-11-09T04:59:14.759Z,18.52
2017-11-09T05:01:46.446Z,18.52
2017-11-09T05:04:18.074Z,18.50
2017-11-09T05:06:49.162Z,18.53
2017-11-09T05:09:20.204Z,18.54
2017-11-09T05:11:51.366Z,18.58
2017-11-09T05:14:22.763Z,18.62
2017-11-09T05:16:57.860Z,18.62
2017-11-09T05:19:33.511Z,18.66
2017-11-09T05:22:07.641Z,18.68
2017-11-09T05:24:40.683Z,18.70
2017-11-09T05:27:12.667Z,18.67
2017-11-09T05:29:47.965Z,18.74
2017-11-09T05:32:19.869Z,18.73
2017-11-09T05:34:51.393Z,18.67
2017-11-09T05:37:22.812Z,18.69
2017-11-09T05:39:53.884Z,18.66
2017-11-09T05:42:25.950Z,18.63
2017-11-09T05:44:57.540Z,18.62
2017-11-09T05:47:28.863Z,18.56
2017-11-09T05:50:00.429Z,18.57
2017-11-09T05:52:31.662Z,18.55
2017-11-09T05:55:03.724Z,18.53
2017-11-09T05:57:35.034Z,18.51
2017-11-09T06:00:06.981Z,18.50
2017-11-09T06:02:38.415Z,18.49
2017-11-09T06:05:11.318Z,18.43
2017-11-09T06:07:44.197Z,18.45
2017-11-09T06:10:16.226Z,18.40
2017-11-09T06:12:47.631Z,18.40
2017-11-09T06:15:19.414Z,18.40
2017-11-09T06:17:51.537Z,18.37
2017-11-09T06:20:24.486Z,18.34
2017-11-09T06:22:55.722Z,18.39
2017-11-09T06:25:27.070Z,18.42
2017-11-09T06:27:58.334Z,18.48
2017-11-09T06:30:29.700Z,18.54
2017-11-09T06:33:00.999Z,18.62
2017-11-09T06:35:32.651Z,18.67
2017-11-09T06:38:04.177Z,18.71
2017-11-09T06:40:35.407Z,18.79
2017-11-09T06:43:06.425Z,18.81
2017-11-09T06:45:38.434Z,18.83
2017-11-09T06:48:10.057Z,18.85
2017-11-09T06:50:42.019Z,18.82
2017-11-09T06:53:13.199Z,18.85
2017-11-09T06:55:45.165Z,18.83
2017-11-09T06:58:17.443Z,18.81
2017-11-09T07:00:48.641Z,18.78
2017-11-09T07:03:19.911Z,18.78
2017-11-09T07:05:51.980Z,18.75
2017-11-09T07:08:23.662Z,18.71
2017-11-09T07:10:54.715Z,18.70
2017-11-09T07:13:26.103Z,18.67
2017-11-09T07:15:57.222Z,18.64
2017-11-09T07:18:29.243Z,18.62
2017-11-09T07:21:00.722Z,18.60
2017-11-09T07:23:31.875Z,18.59
2017-11-09T07:26:03.254Z,18.57
2017-11-09T07:28:34.696Z,18.54
2017-11-09T07:31:06.385Z,18.55
2017-11-09T07:33:37.642Z,18.53
2017-11-09T07:36:09.264Z,18.51
2017-11-09T07:38:40.494Z,18.51
2017-11-09T07:41:11.563Z,18.51
2017-11-09T07:43:43.007Z,18.49
2017-11-09T07:46:14.143Z,18.48
2017-11-09T07:48:46.014Z,18.46
2017-11-09T07:51:17.529Z,18.47
2017-11-09T07:53:50.407Z,18.50
2017-11-09T07:56:21.909Z,18.55
2017-11-09T07:59:00.253Z,18.60
2017-11-09T08:01:31.889Z,18.62
2017-11-09T08:04:02.902Z,18.71
2017-11-09T08:06:34.142Z,18.76
2017-11-09T08:09:05.969Z,18.82
2017-11-09T08:11:37.711Z,18.84
2017-11-09T08:14:09.557Z,18.86
2017-11-09T08:16:41.173Z,18.88
2017-11-09T08:19:12.543Z,18.92
2017-11-09T08:21:44.035Z,18.91
2017-11-09T08:24:26.029Z,18.91
2017-11-09T08:27:11.866Z,18.94
2017-11-09T08:29:52.430Z,18.96
2017-11-09T08:32:34.254Z,18.98
2017-11-09T08:35:05.974Z,18.99
2017-11-09T08:37:37.148Z,19.01
2017-11-09T08:40:09.020Z,19.02
2017-11-09T08:42:41.740Z,19.02
2017-11-09T08:45:15.342Z,19.05
2017-11-09T08:47:48.463Z,19.07
2017-11-09T08:50:22.172Z,19.07
2017-11-09T08:52:54.584Z,19.07
2017-11-09T08:55:26.262Z,19.11
2017-11-09T08:57:57.488Z,19.13
2017-11-09T09:00:29.323Z,19.14
2017-11-09T09:03:01.164Z,19.17
2017-11-09T09:05:32.463Z,19.19
2017-11-09T09:08:03.613Z,19.22
2017-11-09T09:10:35.351Z,19.22
2017-11-09T09:13:08.351Z,19.23
2017-11-09T09:15:40.637Z,19.28
2017-11-09T09:18:12.558Z,19.31
2017-11-09T09:20:44.057Z,19.36
2017-11-09T09:23:15.476Z,19.44
2017-11-09T09:25:47.021Z,19.52
2017-11-09T09:28:20.155Z,19.58
2017-11-09T09:30:52.233Z,19.65
2017-11-09T09:33:32.544Z,19.74
2017-11-09T09:36:13.805Z,19.77
2017-11-09T09:39:13.213Z,19.79
2017-11-09T09:41:46.594Z,19.80
2017-11-09T09:44:24.438Z,19.81
2017-11-09T09:46:56.388Z,19.78
2017-11-09T09:49:28.975Z,19.78
2017-11-09T09:52:00.278Z,19.82
2017-11-09T09:54:41.348Z,19.80
2017-11-09T09:57:17.830Z,19.77
2017-11-09T09:59:54.668Z,19.80
2017-11-09T10:02:27.444Z,19.81
2017-11-09T10:07:54.421Z,19.74
2017-11-09T10:10:26.219Z,19.78
2017-11-09T10:12:57.768Z,19.74
2017-11-09T10:15:29.323Z,19.77
2017-11-09T10:18:01.296Z,19.74
2017-11-09T10:20:32.764Z,19.74
2017-11-09T10:23:04.483Z,19.69
2017-11-09T10:25:45.618Z,19.70
2017-11-09T10:28:19.344Z,19.65
2017-11-09T10:30:58.420Z,19.65
2017-11-09T10:33:30.532Z,19.67
2017-11-09T10:36:02.349Z,19.68
2017-11-09T10:38:33.836Z,19.66
2017-11-09T10:41:07.054Z,19.60
2017-11-09T10:43:38.829Z,19.60
2017-11-09T10:46:10.316Z,19.64
2017-11-09T10:48:43.433Z,19.62
2017-11-09T10:51:15.189Z,19.68
2017-11-09T10:53:50.161Z,19.69
2017-11-09T10:56:21.757Z,19.68
2017-11-09T10:58:52.966Z,19.78
2017-11-09T11:01:24.908Z,19.82
2017-11-09T11:03:56.541Z,19.81
2017-11-09T11:06:28.825Z,19.90
2017-11-09T11:09:05.613Z,19.90
2017-11-09T11:11:37.113Z,19.97
2017-11-09T11:14:08.283Z,20.00
2017-11-09T11:16:39.800Z,20.02
2017-11-09T11:19:11.938Z,20.01
2017-11-09T11:21:43.642Z,20.06
2017-11-09T11:24:15.017Z,20.08
2017-11-09T11:26:47.054Z,20.08
2017-11-09T11:29:23.361Z,20.10
2017-11-09T11:31:59.666Z,20.08
2017-11-09T11:34:32.630Z,20.16
2017-11-09T11:37:05.593Z,20.19
2017-11-09T11:39:37.852Z,20.21
2017-11-09T11:42:09.590Z,20.22
2017-11-09T11:44:42.319Z,20.20
2017-11-09T11:47:14.576Z,20.18
2017-11-09T11:49:46.816Z,20.14
2017-11-09T11:52:19.831Z,20.11
2017-11-09T11:54:51.856Z,20.09
2017-11-09T11:57:24.057Z,20.01
2017-11-09T11:59:56.112Z,19.95
2017-11-09T12:02:29.871Z,19.87
2017-11-09T12:05:02.644Z,19.82
2017-11-09T12:07:35.922Z,19.78
2017-11-09T12:10:18.853Z,19.73
2017-11-09T12:12:50.255Z,19.71
2017-11-09T12:15:22.213Z,19.70
2017-11-09T12:17:54.535Z,19.69
2017-11-09T12:20:26.447Z,19.69
2017-11-09T12:23:02.266Z,19.70
2017-11-09T12:25:34.581Z,19.72
2017-11-09T12:28:12.259Z,19.78
2017-11-09T12:30:48.096Z,19.80
2017-11-09T12:33:20.038Z,19.83
2017-11-09T12:35:53.460Z,19.85
2017-11-09T12:38:25.524Z,19.86
2017-11-09T12:40:58.506Z,19.85
2017-11-09T12:43:30.258Z,19.85
2017-11-09T12:46:02.843Z,19.84
2017-11-09T12:48:35.111Z,19.84
2017-11-09T12:51:09.582Z,19.85
2017-11-09T12:53:42.590Z,19.78
2017-11-09T12:56:13.859Z,19.79
2017-11-09T12:58:45.305Z,19.78
2017-11-09T13:01:16.810Z,19.71
2017-11-09T13:03:49.219Z,19.69
2017-11-09T13:06:28.220Z,19.65
2017-11-09T13:09:00.765Z,19.59
2017-11-09T13:11:36.206Z,19.59
2017-11-09T13:14:08.075Z,19.54
2017-11-09T13:16:39.814Z,19.52
2017-11-09T13:19:11.019Z,19.48
2017-11-09T13:21:43.469Z,19.46
2017-11-09T13:24:14.991Z,19.37
2017-11-09T13:26:46.970Z,19.38
2017-11-09T13:29:19.055Z,19.34
2017-11-09T13:31:51.593Z,19.33
2017-11-09T13:34:26.356Z,19.30
2017-11-09T13:36:58.262Z,19.27
2017-11-09T13:39:31.147Z,19.24
2017-11-09T13:42:03.918Z,19.21
2017-11-09T13:44:37.750Z,19.17
2017-11-09T13:47:10.330Z,19.15
2017-11-09T13:49:42.635Z,19.11
2017-11-09T13:52:14.704Z,19.09
2017-11-09T13:54:46.600Z,19.06
2017-11-09T13:57:20.116Z,19.06
2017-11-09T13:59:51.816Z,19.10
2017-11-09T14:02:23.709Z,19.10
2017-11-09T14:04:55.354Z,19.15
2017-11-09T14:07:27.977Z,19.18
2017-11-09T14:10:04.757Z,19.22
2017-11-09T14:12:36.672Z,19.24
2017-11-09T14:15:08.499Z,19.25
2017-11-09T14:17:41.383Z,19.30
2017-11-09T14:20:15.113Z,19.33
2017-11-09T14:22:48.465Z,19.35
2017-11-09T14:25:20.768Z,19.34
2017-11-09T14:27:52.717Z,19.35
2017-11-09T14:30:24.125Z,19.35
2017-11-09T14:32:56.678Z,19.33
2017-11-09T14:35:28.792Z,19.29
2017-11-09T14:38:03.880Z,19.28
2017-11-09T14:40:38.951Z,19.29
2017-11-09T14:43:11.598Z,19.28
2017-11-09T14:45:44.803Z,19.26
2017-11-09T14:48:18.897Z,19.21
2017-11-09T14:50:51.075Z,19.20
2017-11-09T14:53:24.622Z,19.18
2017-11-09T14:56:03.371Z,19.17
2017-11-09T14:58:37.778Z,19.15
2017-11-09T15:01:17.062Z,19.13
2017-11-09T15:03:51.546Z,19.11
2017-11-09T15:06:25.838Z,19.08
2017-11-09T15:09:02.580Z,19.05
2017-11-09T15:11:35.854Z,19.02
2017-11-09T15:14:09.136Z,19.02
2017-11-09T15:16:52.830Z,18.99
2017-11-09T15:19:28.304Z,18.96
2017-11-09T15:22:04.119Z,18.91
2017-11-09T15:24:57.515Z,18.92
2017-11-09T15:27:29.038Z,18.90
2017-11-09T15:30:15.133Z,18.88
2017-11-09T15:32:47.073Z,18.86
2017-11-09T15:35:20.401Z,18.85
2017-11-09T15:37:52.131Z,18.87
2017-11-09T15:40:28.707Z,18.87
2017-11-09T15:43:03.514Z,18.89
2017-11-09T15:45:36.145Z,18.90
2017-11-09T15:48:10.794Z,18.85
2017-11-09T15:50:42.765Z,18.92
2017-11-09T15:53:19.815Z,18.90
2017-11-09T15:55:56.738Z,18.96
2017-11-09T15:58:34.253Z,18.95
2017-11-09T16:01:11.159Z,18.97
2017-11-09T16:03:42.951Z,18.98
2017-11-09T16:06:20.590Z,18.99
2017-11-09T16:08:53.396Z,18.99
2017-11-09T16:11:26.378Z,18.98
2017-11-09T16:13:59.659Z,18.96
2017-11-09T16:16:34.141Z,18.95
2017-11-09T16:19:09.798Z,18.92
2017-11-09T16:21:43.219Z,18.84
2017-11-09T16:24:16.073Z,18.90
2017-11-09T16:26:50.159Z,18.91
2017-11-09T16:29:25.372Z,18.87
2017-11-09T16:31:59.151Z,18.85
2017-11-09T16:34:33.654Z,18.86
2017-11-09T16:37:07.670Z,18.85
2017-11-09T16:39:39.938Z,18.91
2017-11-09T16:42:17.933Z,19.01
2017-11-09T16:44:55.922Z,19.12
2017-11-09T16:47:35.424Z,19.23
2017-11-09T16:50:16.033Z,19.34
2017-11-09T16:53:26.545Z,19.44
2017-11-09T17:05:40.528Z,19.75
2017-11-09T17:08:16.780Z,19.89
2017-11-09T17:10:49.216Z,19.96
2017-11-09T17:13:23.220Z,20.05
2017-11-09T17:15:55.506Z,20.15
2017-11-09T17:18:32.562Z,20.23
2017-11-09T17:21:05.613Z,20.27
2017-11-09T17:23:39.549Z,20.33
2017-11-09T17:26:13.808Z,20.37
2017-11-09T17:28:45.427Z,20.43
2017-11-09T17:31:17.544Z,20.48
2017-11-09T17:33:50.516Z,20.52
2017-11-09T17:36:23.925Z,20.58
2017-11-09T17:39:00.168Z,20.60
2017-11-09T17:41:34.466Z,20.62
2017-11-09T17:44:38.904Z,20.65
2017-11-09T17:47:16.635Z,20.73
2017-11-09T17:53:37.774Z,20.68
2017-11-09T17:56:14.194Z,20.79
2017-11-09T17:58:47.835Z,20.80
2017-11-09T18:01:21.247Z,20.87
2017-11-09T18:03:53.847Z,20.90
2017-11-09T18:06:30.892Z,20.97
2017-11-09T18:09:02.801Z,21.04
2017-11-09T18:11:39.623Z,21.10
2017-11-09T18:14:17.705Z,21.13
2017-11-09T18:16:55.266Z,21.24
2017-11-09T18:22:39.597Z,21.42
2017-11-09T18:25:17.739Z,21.49
2017-11-09T18:27:57.215Z,21.58
2017-11-09T18:30:31.754Z,21.67
2017-11-09T18:33:06.190Z,21.78
2017-11-09T18:35:41.468Z,21.87
2017-11-09T18:38:14.252Z,21.92
2017-11-09T18:40:50.401Z,22.01
2017-11-09T18:43:24.144Z,22.05
2017-11-09T18:46:00.346Z,22.10
2017-11-09T18:48:35.271Z,22.09
2017-11-09T18:51:08.356Z,22.10
2017-11-09T18:53:42.527Z,22.13
2017-11-09T18:56:19.714Z,22.09
2017-11-09T18:59:26.365Z,22.16
2017-11-09T19:05:01.126Z,22.12
2017-11-09T19:07:34.427Z,22.18
2017-11-09T19:10:10.891Z,22.18
2017-11-09T19:12:45.557Z,22.15
2017-11-09T19:15:27.825Z,22.13
2017-11-09T19:18:09.348Z,22.14
2017-11-09T19:20:44.358Z,22.16
2017-11-09T19:23:18.318Z,22.18
2017-11-09T19:25:50.295Z,22.22
2017-11-09T19:28:23.273Z,22.24
2017-11-09T19:30:55.429Z,22.26
2017-11-09T19:33:26.731Z,22.26
2017-11-09T19:36:00.713Z,22.21
2017-11-09T19:38:34.905Z,22.28
2017-11-09T19:41:07.149Z,22.26
2017-11-09T19:43:39.037Z,22.24
2017-11-09T19:46:12.596Z,22.19
2017-11-09T19:48:45.778Z,22.18
2017-11-09T19:51:22.015Z,22.19
2017-11-09T19:53:58.606Z,22.20
2017-11-09T19:56:32.836Z,22.21
2017-11-09T19:59:13.450Z,22.21
2017-11-09T20:01:48.963Z,22.22
2017-11-09T20:04:23.016Z,22.25
2017-11-09T20:06:57.222Z,22.26
2017-11-09T20:09:43.340Z,22.29
2017-11-09T20:12:19.962Z,22.34
2017-11-09T20:14:55.737Z,22.34
2017-11-09T20:20:47.351Z,22.32
2017-11-09T20:23:25.262Z,22.41
2017-11-09T20:31:22.561Z,22.35
2017-11-09T20:38:47.040Z,22.47
2017-11-09T20:41:26.577Z,22.51
2017-11-09T20:44:20.808Z,22.57
2017-11-09T20:47:01.984Z,22.60
2017-11-09T20:50:21.140Z,22.59
2017-11-09T20:52:53.769Z,22.64
2017-11-09T20:55:48.166Z,22.64
2017-11-09T20:58:21.119Z,22.62
2017-11-09T21:00:54.803Z,22.64
2017-11-09T21:03:27.036Z,22.64
2017-11-09T21:05:59.127Z,22.64
2017-11-09T21:08:33.884Z,22.64
2017-11-09T21:11:07.433Z,22.66
2017-11-09T21:13:40.422Z,22.66
2017-11-09T21:16:13.933Z,22.67
2017-11-09T21:18:47.122Z,22.63
2017-11-09T21:21:20.359Z,22.59
2017-11-09T21:24:14.175Z,22.47
2017-11-09T21:26:50.999Z,22.34
2017-11-09T21:29:25.301Z,22.22
2017-11-09T21:32:06.440Z,22.10
2017-11-09T21:34:48.938Z,21.98
2017-11-09T21:37:24.838Z,21.86
2017-11-09T21:39:59.089Z,21.72
2017-11-09T21:42:37.882Z,21.63
2017-11-09T21:45:17.213Z,21.52
2017-11-09T21:47:51.659Z,21.44
2017-11-09T21:50:31.247Z,21.37
2017-11-09T21:53:08.142Z,21.29
2017-11-09T21:55:43.783Z,21.21
2017-11-09T21:58:27.373Z,21.11
2017-11-09T22:01:01.549Z,21.05
2017-11-09T22:03:37.308Z,20.98
2017-11-09T22:06:16.465Z,20.92
2017-11-09T22:08:57.261Z,20.85
2017-11-09T22:11:32.141Z,20.78
2017-11-09T22:14:07.304Z,20.69
2017-11-09T22:19:26.743Z,20.55
2017-11-09T22:21:58.855Z,20.52
2017-11-09T22:24:31.020Z,20.46
2017-11-09T22:27:03.864Z,20.45
2017-11-09T22:32:48.433Z,20.33
2017-11-09T22:35:20.876Z,20.29
2017-11-09T22:40:13.110Z,20.22
2017-11-09T22:45:50.365Z,20.14
2017-11-09T22:48:25.218Z,20.01
2017-11-09T22:50:56.841Z,20.00
2017-11-09T22:53:31.197Z,19.93
2017-11-09T22:56:03.245Z,19.95
2017-11-09T22:58:34.481Z,19.90
2017-11-09T23:01:10.387Z,19.87
2017-11-09T23:03:44.001Z,19.82
2017-11-09T23:06:19.123Z,19.82
2017-11-09T23:08:50.405Z,19.78
2017-11-09T23:56:26.590Z,19.20
2017-11-09T23:59:00.296Z,19.21
